Greeley, Colorado
Current Conditions -  °F | °C
As of 9:55 AM on Monday 22 Dec 2014 (Local Time) from KGXY Reporting Station
Few Clouds Few Clouds  
Wind Chill: 30°   Ceiling: Unl
Heat Index: 37°   Visibility: 10mi
Dew Point: 18°   Wind: 10mph
Humidity: 45%   Direction: 10°N
Pressure: 29.71"   Gusts: NA
Location:  40.42°N, 104.69°W
Report Text: KGXY 221655Z AUTO 01009KT 10SM FEW110 03/M08 A2971 RMK AO1
Loading
Personal Weather Stations






























Interactive Weather Map New forecast layout! Learn more

10-Day Weather Forecast

Advertisements
Track Severe Weather on mobile